TAF SBMQ
SBMQ 280300Z 2806/2906 02005KT 9999 SCT015 TX34/2818Z TN26/2906Z BECMG 2812/2814 09008KT SCT020 FEW030TCU PROB30 2819/2823 TS SCT025 FEW040CB BECMG 2900/2902 34005KT FEW015 RMK PGY=
METAR SBMQ
SBMQ 280900Z 29002KT 9999 FEW013 BKN080 24/23 Q1009=
SBMQ 280800Z 34002KT 9999 SCT013 24/23 Q1009=
SBMQ 280700Z 30001KT 9999 SCT013 24/24 Q1008=
SBMQ 280600Z 28001KT 9999 FEW013 24/23 Q1008=
SBMQ 280500Z 32001KT CAVOK 25/23 Q1009=
WC SBMQ
WS SBMQ
WV SBMQ